This is the latest recevied weather packets stored in our database for station/object OZ7MKS. If no packets are shown the sender has not sent any weather packets the latest 10 day(s).
| Time | Temp. | Humidity | Pressure | Rain* | Wind** | Luminosity | Snow |
|---|---|---|---|---|---|---|---|
| 1778140503 | 11.67° C | 65% | 1016.7 hPa | 0 mm | - | - | - |
| 1778137804 | 11.11° C | 69% | 1016.4 hPa | 0 mm | - | - | - |
| 1778135704 | 8.89° C | 75% | 1016.3 hPa | 0 mm | - | - | - |
| 1778135104 | 8.89° C | 74% | 1016.2 hPa | 0 mm | - | - | - |
| 1778134804 | 8.33° C | 76% | 1016.2 hPa | 0 mm | - | - | - |
| 1778133603 | 7.78° C | 81% | 1016.1 hPa | 0 mm | - | - | - |
| 1778131804 | 5.56° C | 87% | 1015.8 hPa | 0 mm | - | - | - |
| 1778131204 | 5.56° C | 88% | 1015.8 hPa | 0 mm | - | - | - |
| 1778127303 | 2.22° C | 90% | 1015.2 hPa | 0 mm | - | - | - |
| 1778124603 | 2.22° C | 89% | 1015 hPa | 0 mm | - | - | - |
| 1778124004 | 2.22° C | 89% | 1015 hPa | 0 mm | - | - | - |
| 1778123104 | 2.22° C | 88% | 1014.9 hPa | 0 mm | - | - | - |
| 1778122804 | 2.22° C | 89% | 1014.9 hPa | 0 mm | - | - | - |
| 1778118604 | 2.22° C | 88% | 1014.7 hPa | 0 mm | - | - | - |
| 1778117104 | 2.78° C | 87% | 1014.4 hPa | 0 mm | - | - | - |
| 1778116804 | 3.33° C | 87% | 1014.5 hPa | 0 mm | - | - | - |
| 1778115304 | 3.89° C | 86% | 1014.4 hPa | 0 mm | - | - | - |
| 1778112304 | 3.89° C | 86% | 1014.4 hPa | 0 mm | - | - | - |
| 1778112004 | 3.89° C | 85% | 1014.4 hPa | 0 mm | - | - | - |
| 1778111104 | 3.89° C | 85% | 1014.4 hPa | 0 mm | - | - | - |
| 1778109604 | 3.33° C | 85% | 1014.5 hPa | 0 mm | - | - | - |
| 1778106904 | 3.89° C | 83% | 1014.4 hPa | 0 mm | - | - | - |
| 1778103603 | 4.44° C | 82% | 1014.1 hPa | 0 mm | - | - | - |
| 1778102403 | 4.44° C | 81% | 1014 hPa | 0 mm | - | - | - |
| 1778101504 | 5° C | 80% | 1013.8 hPa | 0 mm | - | - | - |
* Rain latest hour (hover to see other rain measurements)
** Current wind speed in m/s (hover to see current wind gust speed)